sensor_id;sensor_type;location;lat;lon;timestamp;temperature;humidity
22522;DHT22;11427;51.062;17.044;2022-10-22T00:03:03;10.80;99.90
22522;DHT22;11427;51.062;17.044;2022-10-22T00:18:05;10.50;99.90
22522;DHT22;11427;51.062;17.044;2022-10-22T00:33:07;10.30;99.90
22522;DHT22;11427;51.062;17.044;2022-10-22T00:48:12;10.30;99.90
22522;DHT22;11427;51.062;17.044;2022-10-22T01:03:15;10.50;99.90
22522;DHT22;11427;51.062;17.044;2022-10-22T01:18:24;10.40;99.90
22522;DHT22;11427;51.062;17.044;2022-10-22T01:33:29;10.10;99.90
22522;DHT22;11427;51.062;17.044;2022-10-22T02:03:47;10.10;99.90
22522;DHT22;11427;51.062;17.044;2022-10-22T02:18:53;10.00;99.90
22522;DHT22;11427;51.062;17.044;2022-10-22T02:33:59;10.20;99.90
22522;DHT22;11427;51.062;17.044;2022-10-22T02:49:02;10.20;99.90
22522;DHT22;11427;51.062;17.044;2022-10-22T03:04:04;9.90;99.90
22522;DHT22;11427;51.062;17.044;2022-10-22T03:19:06;10.00;99.90
22522;DHT22;11427;51.062;17.044;2022-10-22T03:34:08;10.20;99.90
22522;DHT22;11427;51.062;17.044;2022-10-22T03:49:10;10.20;99.90
22522;DHT22;11427;51.062;17.044;2022-10-22T04:04:12;10.30;99.90
22522;DHT22;11427;51.062;17.044;2022-10-22T04:19:14;10.60;99.90
22522;DHT22;11427;51.062;17.044;2022-10-22T04:34:16;10.70;99.90
22522;DHT22;11427;51.062;17.044;2022-10-22T04:49:17;10.80;99.90
22522;DHT22;11427;51.062;17.044;2022-10-22T05:04:19;10.60;99.90
22522;DHT22;11427;51.062;17.044;2022-10-22T05:19:27;10.60;99.90
22522;DHT22;11427;51.062;17.044;2022-10-22T05:34:30;10.60;99.90
22522;DHT22;11427;51.062;17.044;2022-10-22T05:49:33;10.70;99.90
22522;DHT22;11427;51.062;17.044;2022-10-22T06:04:35;10.70;99.90
22522;DHT22;11427;51.062;17.044;2022-10-22T06:19:38;11.10;99.90
22522;DHT22;11427;51.062;17.044;2022-10-22T06:34:39;11.00;99.90
22522;DHT22;11427;51.062;17.044;2022-10-22T06:49:41;11.00;99.90
22522;DHT22;11427;51.062;17.044;2022-10-22T07:04:43;11.50;99.90
22522;DHT22;11427;51.062;17.044;2022-10-22T07:19:45;11.70;99.90
22522;DHT22;11427;51.062;17.044;2022-10-22T07:34:51;11.60;99.90
22522;DHT22;11427;51.062;17.044;2022-10-22T07:49:53;11.90;99.90
22522;DHT22;11427;51.062;17.044;2022-10-22T08:04:55;12.00;99.90
22522;DHT22;11427;51.062;17.044;2022-10-22T08:19:57;12.70;99.90
22522;DHT22;11427;51.062;17.044;2022-10-22T08:34:59;12.90;99.90
22522;DHT22;11427;51.062;17.044;2022-10-22T08:50:01;13.30;99.90
22522;DHT22;11427;51.062;17.044;2022-10-22T09:20:52;13.90;99.90
22522;DHT22;11427;51.062;17.044;2022-10-22T09:36:01;14.20;99.90
22522;DHT22;11427;51.062;17.044;2022-10-22T10:06:21;14.60;99.90
22522;DHT22;11427;51.062;17.044;2022-10-22T10:21:33;14.60;99.90
22522;DHT22;11427;51.062;17.044;2022-10-22T10:52:00;14.70;99.90
22522;DHT22;11427;51.062;17.044;2022-10-22T11:07:07;14.60;99.90
22522;DHT22;11427;51.062;17.044;2022-10-22T11:22:33;14.60;99.90
22522;DHT22;11427;51.062;17.044;2022-10-22T11:37:36;15.30;99.90
22522;DHT22;11427;51.062;17.044;2022-10-22T11:53:01;15.80;99.90
22522;DHT22;11427;51.062;17.044;2022-10-22T12:23:16;15.90;99.90
22522;DHT22;11427;51.062;17.044;2022-10-22T12:38:21;16.60;99.90
22522;DHT22;11427;51.062;17.044;2022-10-22T12:53:31;16.40;99.90
22522;DHT22;11427;51.062;17.044;2022-10-22T13:08:33;15.80;99.90
22522;DHT22;11427;51.062;17.044;2022-10-22T13:23:35;15.10;99.90
22522;DHT22;11427;51.062;17.044;2022-10-22T13:38:39;14.80;99.90
22522;DHT22;11427;51.062;17.044;2022-10-22T13:53:41;14.70;99.90
22522;DHT22;11427;51.062;17.044;2022-10-22T14:08:52;14.60;99.90
22522;DHT22;11427;51.062;17.044;2022-10-22T14:23:55;14.70;99.90
22522;DHT22;11427;51.062;17.044;2022-10-22T14:38:57;14.60;99.90
22522;DHT22;11427;51.062;17.044;2022-10-22T14:53:59;14.40;99.90
22522;DHT22;11427;51.062;17.044;2022-10-22T15:09:01;14.50;99.90
22522;DHT22;11427;51.062;17.044;2022-10-22T15:24:03;14.30;99.90
22522;DHT22;11427;51.062;17.044;2022-10-22T15:39:09;14.30;99.90
22522;DHT22;11427;51.062;17.044;2022-10-22T15:54:16;14.20;99.90
22522;DHT22;11427;51.062;17.044;2022-10-22T16:09:21;14.20;99.90
22522;DHT22;11427;51.062;17.044;2022-10-22T16:24:23;14.30;99.90
22522;DHT22;11427;51.062;17.044;2022-10-22T16:39:26;14.30;99.90
22522;DHT22;11427;51.062;17.044;2022-10-22T16:54:28;14.30;99.90
22522;DHT22;11427;51.062;17.044;2022-10-22T17:09:30;14.30;99.90
22522;DHT22;11427;51.062;17.044;2022-10-22T17:24:32;14.30;99.90
22522;DHT22;11427;51.062;17.044;2022-10-22T17:39:34;14.30;99.90
22522;DHT22;11427;51.062;17.044;2022-10-22T17:54:36;14.30;99.90
22522;DHT22;11427;51.062;17.044;2022-10-22T18:09:38;14.40;99.90
22522;DHT22;11427;51.062;17.044;2022-10-22T18:24:40;14.30;99.90
22522;DHT22;11427;51.062;17.044;2022-10-22T18:39:42;14.20;99.90
22522;DHT22;11427;51.062;17.044;2022-10-22T18:54:44;14.20;99.90
22522;DHT22;11427;51.062;17.044;2022-10-22T19:09:46;14.20;99.90
22522;DHT22;11427;51.062;17.044;2022-10-22T19:24:49;14.10;99.90
22522;DHT22;11427;51.062;17.044;2022-10-22T19:39:51;14.10;99.90
22522;DHT22;11427;51.062;17.044;2022-10-22T19:54:53;14.10;99.90
22522;DHT22;11427;51.062;17.044;2022-10-22T20:09:55;14.00;99.90
22522;DHT22;11427;51.062;17.044;2022-10-22T20:24:56;13.90;99.90
22522;DHT22;11427;51.062;17.044;2022-10-22T20:39:58;13.70;99.90
22522;DHT22;11427;51.062;17.044;2022-10-22T20:55:00;13.80;99.90
22522;DHT22;11427;51.062;17.044;2022-10-22T21:10:03;13.50;99.90
22522;DHT22;11427;51.062;17.044;2022-10-22T21:25:05;13.40;99.90
22522;DHT22;11427;51.062;17.044;2022-10-22T21:40:07;13.20;99.90
22522;DHT22;11427;51.062;17.044;2022-10-22T21:55:10;13.20;99.90
22522;DHT22;11427;51.062;17.044;2022-10-22T22:10:11;13.50;99.90
22522;DHT22;11427;51.062;17.044;2022-10-22T22:25:13;13.50;99.90
22522;DHT22;11427;51.062;17.044;2022-10-22T22:40:15;13.40;99.90
22522;DHT22;11427;51.062;17.044;2022-10-22T22:55:17;13.00;99.90
22522;DHT22;11427;51.062;17.044;2022-10-22T23:10:19;12.70;99.90
22522;DHT22;11427;51.062;17.044;2022-10-22T23:25:21;12.40;99.90
22522;DHT22;11427;51.062;17.044;2022-10-22T23:40:23;12.20;99.90
22522;DHT22;11427;51.062;17.044;2022-10-22T23:55:25;12.10;99.90
